Time;durP1;ratioP1;P1;durP2;ratioP2;P2;SDS_P1;SDS_P2;PMS_P1;PMS_P2;Temp;Humidity;BMP_temperature;BMP_pressure;BME280_temperature;BME280_humidity;BME280_pressure;Samples;Min_cycle;Max_cycle;Signal;HPM_P1;HPM_P2
2024/04/09 00:01:39;;;;;;;0.98;0.55;;;14.20;94.70;;;;;;4234727;27;20097;-62
2024/04/09 00:03:41;;;;;;;2.50;0.13;;;14.10;94.60;;;;;;4242045;27;20048;-60
2024/04/09 00:05:43;;;;;;;1.88;0.65;;;14.10;95.00;;;;;;4231617;28;20124;-58
2024/04/09 00:07:44;;;;;;;0.70;0.38;;;14.10;94.50;;;;;;4242156;27;20039;-59
2024/04/09 00:09:45;;;;;;;1.77;0.80;;;14.10;94.70;;;;;;4234162;27;20044;-61
2024/04/09 00:11:49;;;;;;;0.63;0.63;;;14.00;94.40;;;;;;4218957;28;20054;-58
2024/04/09 00:13:51;;;;;;;0.38;0.10;;;14.00;94.30;;;;;;4236786;27;20054;-59
2024/04/09 00:15:53;;;;;;;1.40;0.17;;;14.00;94.50;;;;;;4231808;28;20062;-61
2024/04/09 00:17:55;;;;;;;5.63;1.02;;;14.00;94.20;;;;;;4239284;27;20065;-64
2024/04/09 00:19:56;;;;;;;1.23;0.82;;;14.00;94.40;;;;;;4244752;27;20047;-56
2024/04/09 00:22:01;;;;;;;0.95;0.50;;;13.90;94.40;;;;;;4229837;28;20044;-56
2024/04/09 00:24:02;;;;;;;0.73;0.30;;;13.90;94.30;;;;;;4244369;27;20040;-55
2024/04/09 00:26:03;;;;;;;2.75;0.40;;;13.80;94.00;;;;;;4231495;28;20040;-57
2024/04/09 00:28:06;;;;;;;2.28;0.30;;;13.70;94.10;;;;;;4238552;27;20120;-65
2024/04/09 00:30:07;;;;;;;0.38;0.32;;;13.70;94.10;;;;;;4235777;27;20085;-58
2024/04/09 00:32:09;;;;;;;0.10;0.10;;;13.70;93.80;;;;;;4232734;27;20044;-58
2024/04/09 00:34:10;;;;;;;0.47;0.17;;;13.60;93.40;;;;;;4242372;27;20099;-58
2024/04/09 00:36:14;;;;;;;0.52;0.20;;;13.50;93.50;;;;;;4230836;28;20043;-58
2024/04/09 00:38:19;;;;;;;1.00;0.10;;;13.50;93.70;;;;;;4236416;27;20035;-58
2024/04/09 00:40:21;;;;;;;0.75;0.55;;;13.40;94.00;;;;;;4247935;27;20039;-61
2024/04/09 00:42:22;;;;;;;0.77;0.40;;;13.40;93.40;;;;;;4246682;27;20047;-61
2024/04/09 00:44:28;;;;;;;3.47;0.30;;;13.40;93.80;;;;;;4236260;27;20047;-58
2024/04/09 00:46:29;;;;;;;1.55;0.40;;;13.40;94.20;;;;;;4248090;27;20058;-59
2024/04/09 00:48:30;;;;;;;0.25;0.10;;;13.40;93.90;;;;;;4225724;28;20048;-54
2024/04/09 00:50:35;;;;;;;0.50;0.30;;;13.10;93.90;;;;;;4240554;27;20046;-54
2024/04/09 00:52:37;;;;;;;0.85;0.22;;;13.20;93.80;;;;;;4248095;27;20062;-57
2024/04/09 00:54:39;;;;;;;0.82;0.38;;;13.10;94.20;;;;;;4235441;27;20096;-57
2024/04/09 00:56:43;;;;;;;0.10;0.10;;;13.10;94.30;;;;;;4231107;28;20051;-57
2024/04/09 00:58:46;;;;;;;0.32;0.30;;;13.10;94.10;;;;;;4244006;27;20550;-57
2024/04/09 01:00:49;;;;;;;0.28;0.28;;;13.10;93.90;;;;;;4240156;27;20047;-57
2024/04/09 01:02:51;;;;;;;2.83;0.85;;;13.10;94.00;;;;;;4248186;27;20404;-57
2024/04/09 01:04:53;;;;;;;0.55;0.45;;;13.00;93.70;;;;;;4217975;28;20422;-56
2024/04/09 01:06:54;;;;;;;1.20;0.50;;;13.00;93.80;;;;;;4247892;27;20400;-57
2024/04/09 01:08:55;;;;;;;0.90;0.20;;;12.90;94.00;;;;;;4244573;27;20057;-56
2024/04/09 01:10:57;;;;;;;1.45;0.68;;;12.90;93.90;;;;;;4221339;28;20104;-56
2024/04/09 01:12:58;;;;;;;1.30;1.08;;;12.90;94.60;;;;;;4247603;27;20043;-55
2024/04/09 01:14:59;;;;;;;0.22;0.10;;;12.90;94.20;;;;;;4231025;28;20481;-56
2024/04/09 01:17:03;;;;;;;1.73;0.30;;;12.80;94.20;;;;;;4232963;27;20431;-61
2024/04/09 01:19:04;;;;;;;0.70;0.30;;;12.80;94.60;;;;;;4215071;28;20477;-55
2024/04/09 01:21:05;;;;;;;5.00;0.85;;;12.80;94.40;;;;;;4236205;27;20526;-57
2024/04/09 01:23:08;;;;;;;0.98;0.43;;;12.80;94.40;;;;;;4247194;27;20586;-60
2024/04/09 01:25:10;;;;;;;1.65;0.70;;;12.70;94.50;;;;;;4242603;27;20050;-57
2024/04/09 01:27:17;;;;;;;1.85;0.30;;;12.70;94.20;;;;;;4233549;27;20047;-58
2024/04/09 01:29:18;;;;;;;3.15;0.28;;;12.70;94.30;;;;;;4231592;27;20469;-56
2024/04/09 01:31:22;;;;;;;3.03;1.08;;;12.70;94.40;;;;;;4242073;27;20039;-58
2024/04/09 01:33:24;;;;;;;0.47;0.38;;;12.60;94.20;;;;;;4230555;28;20044;-58
2024/04/09 01:35:26;;;;;;;0.63;0.20;;;12.60;94.20;;;;;;4238631;27;20035;-64
2024/04/09 01:37:27;;;;;;;1.67;0.30;;;12.50;93.70;;;;;;4234591;27;20043;-57
2024/04/09 01:39:30;;;;;;;0.20;0.20;;;12.40;93.10;;;;;;4231129;27;20055;-57
2024/04/09 01:41:31;;;;;;;0.20;0.20;;;12.40;93.50;;;;;;4240797;27;20040;-60
2024/04/09 01:43:32;;;;;;;3.10;0.28;;;12.30;93.10;;;;;;4230098;28;20039;-55
2024/04/09 01:45:33;;;;;;;1.83;0.40;;;12.30;93.50;;;;;;4223889;28;20100;-57
2024/04/09 01:47:34;;;;;;;1.08;0.70;;;12.30;93.70;;;;;;4247208;27;20055;-55
2024/04/09 01:49:36;;;;;;;0.55;0.17;;;12.30;93.90;;;;;;4246203;27;20084;-57
2024/04/09 01:51:37;;;;;;;1.17;0.88;;;12.30;94.10;;;;;;4235299;27;20500;-55
2024/04/09 01:53:41;;;;;;;0.65;0.38;;;12.30;94.30;;;;;;4247434;27;20051;-58
2024/04/09 01:55:44;;;;;;;0.63;0.10;;;12.30;94.30;;;;;;4241588;27;20164;-57
2024/04/09 01:57:46;;;;;;;1.17;0.65;;;12.40;94.70;;;;;;4239525;27;20051;-56
2024/04/09 01:59:48;;;;;;;4.10;1.05;;;12.40;94.30;;;;;;4247001;27;20058;-61
2024/04/09 02:01:49;;;;;;;0.40;0.30;;;12.30;95.00;;;;;;4242585;27;20408;-57
2024/04/09 02:03:51;;;;;;;5.13;0.63;;;12.40;94.80;;;;;;4229736;28;20051;-57
2024/04/09 02:05:52;;;;;;;0.15;0.10;;;12.30;93.50;;;;;;4233317;28;20047;-56
2024/04/09 02:07:53;;;;;;;1.42;0.20;;;12.40;94.00;;;;;;4239176;27;20052;-57
2024/04/09 02:09:54;;;;;;;0.20;0.17;;;12.30;93.20;;;;;;4229763;28;20074;-57
2024/04/09 02:11:57;;;;;;;4.85;1.27;;;12.30;93.50;;;;;;4241155;28;20044;-57
2024/04/09 02:13:59;;;;;;;0.82;0.35;;;12.20;93.00;;;;;;4214737;28;20478;-60
2024/04/09 02:16:02;;;;;;;7.20;0.52;;;12.20;93.30;;;;;;4231244;28;20039;-63
2024/04/09 02:18:04;;;;;;;1.00;0.30;;;12.20;93.00;;;;;;4240466;28;20043;-57
2024/04/09 02:20:09;;;;;;;0.57;0.32;;;12.10;92.70;;;;;;4229855;28;20424;-55
2024/04/09 02:22:10;;;;;;;0.30;0.10;;;12.10;93.00;;;;;;4233509;28;20055;-68
2024/04/09 02:24:12;;;;;;;0.30;0.10;;;12.10;92.90;;;;;;4212986;28;20517;-56
2024/04/09 02:26:13;;;;;;;0.85;0.30;;;12.10;92.90;;;;;;4228068;28;20101;-57
2024/04/09 02:28:15;;;;;;;2.40;0.40;;;12.00;92.60;;;;;;4218035;28;20577;-62
2024/04/09 02:30:16;;;;;;;4.63;0.77;;;12.00;92.80;;;;;;4229800;28;20035;-57
2024/04/09 02:32:17;;;;;;;4.53;0.45;;;12.00;92.90;;;;;;4221467;28;20463;-57
2024/04/09 02:34:23;;;;;;;1.40;0.40;;;12.10;92.80;;;;;;4225481;28;20074;-59
2024/04/09 02:36:24;;;;;;;0.22;0.20;;;12.00;93.20;;;;;;4228368;28;20052;-59
2024/04/09 02:38:26;;;;;;;1.75;0.35;;;12.00;92.90;;;;;;4217867;28;20047;-67
2024/04/09 02:40:28;;;;;;;0.65;0.50;;;12.00;93.00;;;;;;4212649;28;20098;-60
2024/04/09 02:42:29;;;;;;;2.30;0.90;;;12.00;92.80;;;;;;4222318;28;20417;-56
2024/04/09 02:44:32;;;;;;;2.17;0.52;;;12.10;93.30;;;;;;4224073;28;20047;-58
2024/04/09 02:46:34;;;;;;;1.65;0.80;;;12.10;93.10;;;;;;4227956;28;20048;-58
2024/04/09 02:48:35;;;;;;;0.93;0.30;;;12.00;93.00;;;;;;4218016;28;20409;-56
2024/04/09 02:50:37;;;;;;;4.82;0.10;;;12.00;93.10;;;;;;4229216;28;20043;-56
2024/04/09 02:52:38;;;;;;;0.10;0.10;;;12.00;93.30;;;;;;4223402;28;20081;-57
2024/04/09 02:54:39;;;;;;;1.40;0.43;;;12.00;93.30;;;;;;4224085;28;20134;-60
2024/04/09 02:56:40;;;;;;;3.42;1.50;;;12.00;93.30;;;;;;4232639;28;20073;-56
2024/04/09 02:58:42;;;;;;;0.13;0.13;;;12.00;93.40;;;;;;4220129;28;20040;-59
2024/04/09 03:00:44;;;;;;;0.60;0.38;;;12.00;93.70;;;;;;4216426;28;20044;-57
2024/04/09 03:02:49;;;;;;;0.70;0.52;;;11.90;93.40;;;;;;4219753;28;20047;-59
2024/04/09 03:04:51;;;;;;;1.40;0.82;;;11.90;93.50;;;;;;4223846;28;20104;-57
2024/04/09 03:06:52;;;;;;;0.22;0.20;;;11.90;93.60;;;;;;4232079;28;20043;-57
2024/04/09 03:08:54;;;;;;;3.05;0.43;;;11.80;93.40;;;;;;4220129;28;20074;-62
2024/04/09 03:10:55;;;;;;;4.97;0.30;;;11.90;93.60;;;;;;4231272;28;20039;-57
2024/04/09 03:12:57;;;;;;;0.32;0.20;;;11.90;93.40;;;;;;4228192;28;20099;-58
2024/04/09 03:14:58;;;;;;;0.47;0.30;;;11.90;93.40;;;;;;4225876;28;20063;-56
2024/04/09 03:17:00;;;;;;;3.22;0.73;;;12.00;93.20;;;;;;4215263;28;20058;-57
2024/04/09 03:19:01;;;;;;;0.40;0.30;;;11.90;93.20;;;;;;4224641;28;20050;-57
2024/04/09 03:21:03;;;;;;;1.20;0.47;;;11.90;93.20;;;;;;4218223;28;20048;-56
2024/04/09 03:23:05;;;;;;;2.00;0.50;;;11.90;93.00;;;;;;4233446;27;20534;-56
2024/04/09 03:25:06;;;;;;;0.73;0.17;;;11.80;92.80;;;;;;4243633;27;20051;-57
2024/04/09 03:27:08;;;;;;;0.45;0.20;;;11.80;92.80;;;;;;4232803;28;20060;-57
2024/04/09 03:29:09;;;;;;;0.40;0.30;;;11.70;92.80;;;;;;4226328;28;20155;-56
2024/04/09 03:31:11;;;;;;;0.95;0.20;;;11.70;92.90;;;;;;4220113;28;20078;-57
2024/04/09 03:33:13;;;;;;;0.32;0.17;;;11.70;93.10;;;;;;4233597;27;20048;-56
2024/04/09 03:35:16;;;;;;;1.00;0.28;;;11.70;93.00;;;;;;4237178;27;20145;-57
2024/04/09 03:37:17;;;;;;;1.58;1.05;;;11.70;92.90;;;;;;4248575;27;20047;-62
2024/04/09 03:39:19;;;;;;;0.25;0.13;;;11.70;93.20;;;;;;4225623;28;20082;-59
2024/04/09 03:41:20;;;;;;;2.28;0.20;;;11.80;93.00;;;;;;4242725;27;20067;-56
2024/04/09 03:43:22;;;;;;;0.80;0.38;;;11.70;92.90;;;;;;4248653;27;20382;-57
2024/04/09 03:45:23;;;;;;;0.93;0.25;;;11.70;92.70;;;;;;4237382;27;20524;-56
2024/04/09 03:47:25;;;;;;;1.15;0.30;;;11.70;93.10;;;;;;4248585;27;20039;-57
2024/04/09 03:49:27;;;;;;;3.38;0.28;;;11.60;92.30;;;;;;4227059;28;20146;-58
2024/04/09 03:51:29;;;;;;;0.85;0.20;;;11.50;92.60;;;;;;4240745;27;20039;-58
2024/04/09 03:53:30;;;;;;;0.68;0.22;;;11.60;92.80;;;;;;4249124;27;20043;-56
2024/04/09 03:55:31;;;;;;;0.30;0.30;;;11.60;92.80;;;;;;4235912;27;20070;-62
2024/04/09 03:57:33;;;;;;;0.70;0.17;;;11.60;93.00;;;;;;4248526;27;20046;-56
2024/04/09 03:59:34;;;;;;;2.92;1.42;;;11.60;92.80;;;;;;4245763;27;20528;-57
2024/04/09 04:01:36;;;;;;;0.88;0.20;;;11.50;92.80;;;;;;4238784;27;20039;-58
2024/04/09 04:03:40;;;;;;;1.38;0.93;;;11.50;92.70;;;;;;4249035;27;20451;-60
2024/04/09 04:05:50;;;;;;;0.85;0.35;;;11.40;92.70;;;;;;4237071;27;20077;-58
2024/04/09 04:07:51;;;;;;;1.08;0.17;;;11.40;93.10;;;;;;4247300;27;20054;-57
2024/04/09 04:09:53;;;;;;;2.05;0.63;;;11.40;92.90;;;;;;4245396;27;20081;-56
2024/04/09 04:11:54;;;;;;;0.45;0.30;;;11.40;93.40;;;;;;4238077;27;20091;-57
2024/04/09 04:13:56;;;;;;;0.50;0.22;;;11.40;93.00;;;;;;4248068;27;20047;-57
2024/04/09 04:16:05;;;;;;;1.65;1.55;;;11.50;93.30;;;;;;4237825;27;20052;-57
2024/04/09 04:18:07;;;;;;;0.43;0.43;;;11.40;93.00;;;;;;4246277;27;20054;-57
2024/04/09 04:20:09;;;;;;;0.25;0.10;;;11.40;93.20;;;;;;4245693;27;20051;-56
2024/04/09 04:22:12;;;;;;;0.70;0.20;;;11.40;93.10;;;;;;4237264;27;20103;-56
2024/04/09 04:24:13;;;;;;;3.92;0.85;;;11.50;93.30;;;;;;4248055;27;20084;-58
2024/04/09 04:26:16;;;;;;;0.85;0.60;;;11.50;92.90;;;;;;4243545;27;20466;-56
2024/04/09 04:28:17;;;;;;;1.10;0.38;;;11.50;93.10;;;;;;4233770;27;20044;-61
2024/04/09 04:30:18;;;;;;;0.45;0.38;;;11.50;93.10;;;;;;4231887;27;20051;-58
2024/04/09 04:32:20;;;;;;;4.85;2.30;;;11.50;93.20;;;;;;4242249;27;20048;-58
2024/04/09 04:34:21;;;;;;;0.35;0.10;;;11.40;93.00;;;;;;4230497;28;20047;-58
2024/04/09 04:36:22;;;;;;;2.08;1.10;;;11.30;93.40;;;;;;4238160;27;20039;-58
2024/04/09 04:38:25;;;;;;;1.48;0.95;;;11.30;93.00;;;;;;4235733;27;20044;-57
2024/04/09 04:40:26;;;;;;;2.78;0.98;;;11.20;93.20;;;;;;4231784;27;20066;-57
2024/04/09 04:42:27;;;;;;;0.43;0.35;;;11.30;93.40;;;;;;4241999;27;20436;-57
2024/04/09 04:44:29;;;;;;;1.65;0.63;;;11.30;93.50;;;;;;4230654;28;20511;-56
2024/04/09 04:46:30;;;;;;;0.90;0.90;;;11.40;93.40;;;;;;4236630;27;20454;-57
2024/04/09 04:48:31;;;;;;;0.60;0.60;;;11.40;93.50;;;;;;4237350;27;20040;-57
2024/04/09 04:50:32;;;;;;;0.98;0.20;;;11.30;93.20;;;;;;4230509;27;20444;-58
2024/04/09 04:52:33;;;;;;;3.42;0.45;;;11.40;93.60;;;;;;4242688;27;20043;-57
2024/04/09 04:54:36;;;;;;;3.63;1.08;;;11.30;93.70;;;;;;4230487;28;20059;-55
2024/04/09 04:56:37;;;;;;;0.68;0.50;;;11.30;93.70;;;;;;4234125;27;20099;-56
2024/04/09 04:58:38;;;;;;;1.92;0.60;;;11.30;93.80;;;;;;4239114;27;20512;-57
2024/04/09 05:00:39;;;;;;;5.28;0.70;;;11.30;93.80;;;;;;4230196;28;20052;-56
2024/04/09 05:02:41;;;;;;;2.92;0.50;;;11.30;93.90;;;;;;4241794;27;20055;-66
2024/04/09 05:04:42;;;;;;;0.35;0.20;;;11.30;93.80;;;;;;4231185;27;20043;-57
2024/04/09 05:06:43;;;;;;;0.30;0.30;;;11.30;93.80;;;;;;4232071;27;20048;-65
2024/04/09 05:08:44;;;;;;;0.52;0.22;;;11.20;93.80;;;;;;4241195;27;20040;-62
2024/04/09 05:10:48;;;;;;;0.30;0.20;;;11.20;94.10;;;;;;4230536;28;20051;-58
2024/04/09 05:12:50;;;;;;;0.77;0.30;;;11.10;93.80;;;;;;4239597;27;20048;-58
2024/04/09 05:14:51;;;;;;;0.35;0.10;;;11.10;94.00;;;;;;4232583;27;20043;-57
2024/04/09 05:16:53;;;;;;;0.50;0.10;;;11.00;93.80;;;;;;4230946;27;20130;-57
2024/04/09 05:18:54;;;;;;;0.32;0.20;;;11.00;94.00;;;;;;4234484;27;20050;-62
2024/04/09 05:20:56;;;;;;;0.45;0.32;;;11.00;94.00;;;;;;4247363;27;20048;-59
2024/04/09 05:22:57;;;;;;;1.90;0.20;;;11.00;93.80;;;;;;4245296;27;20051;-56
2024/04/09 05:24:58;;;;;;;0.98;0.50;;;11.00;93.60;;;;;;4217743;28;20051;-56
2024/04/09 05:27:01;;;;;;;1.92;0.85;;;11.00;94.00;;;;;;4231391;27;20140;-57
2024/04/09 05:29:03;;;;;;;0.52;0.45;;;11.00;93.80;;;;;;4241353;27;20052;-59
2024/04/09 05:31:04;;;;;;;6.55;0.38;;;11.00;93.80;;;;;;4230218;28;20048;-59
2024/04/09 05:33:05;;;;;;;0.65;0.20;;;10.90;93.60;;;;;;4235912;27;20047;-56
2024/04/09 05:35:07;;;;;;;3.95;0.32;;;10.90;94.00;;;;;;4236335;27;20079;-57
2024/04/09 05:37:09;;;;;;;0.93;0.90;;;10.90;93.80;;;;;;4230352;27;20047;-56
2024/04/09 05:39:11;;;;;;;0.50;0.50;;;11.00;94.00;;;;;;4241889;27;20039;-58
2024/04/09 05:41:12;;;;;;;0.40;0.10;;;10.90;93.70;;;;;;4230210;28;20396;-56
2024/04/09 05:43:18;;;;;;;1.38;0.22;;;10.90;93.80;;;;;;4234073;27;20043;-59
2024/04/09 05:45:20;;;;;;;0.50;0.30;;;10.90;93.90;;;;;;4237243;27;20485;-61
2024/04/09 05:47:24;;;;;;;2.20;0.65;;;11.00;93.80;;;;;;4229307;28;20139;-56
2024/04/09 05:49:28;;;;;;;1.10;0.30;;;11.10;94.00;;;;;;4242442;27;20047;-60
2024/04/09 05:51:29;;;;;;;0.88;0.38;;;11.10;93.60;;;;;;4229504;28;20048;-56
2024/04/09 05:53:30;;;;;;;0.88;0.25;;;11.20;93.80;;;;;;4233398;27;20418;-61
2024/04/09 05:55:31;;;;;;;1.90;0.30;;;11.30;93.70;;;;;;4238163;27;20048;-56
2024/04/09 05:57:36;;;;;;;3.80;0.60;;;11.40;93.50;;;;;;4229682;28;20386;-58
2024/04/09 05:59:39;;;;;;;1.95;0.50;;;11.30;93.20;;;;;;4241392;27;20051;-64
2024/04/09 06:01:40;;;;;;;5.18;1.83;;;11.30;93.60;;;;;;4230177;28;20044;-57
2024/04/09 06:03:41;;;;;;;3.55;1.02;;;11.20;93.90;;;;;;4231955;27;20050;-57
2024/04/09 06:05:42;;;;;;;3.88;0.47;;;11.20;93.80;;;;;;4239656;27;20090;-60
2024/04/09 06:07:44;;;;;;;0.20;0.20;;;11.10;93.80;;;;;;4229690;28;20100;-60
2024/04/09 06:09:46;;;;;;;0.20;0.20;;;11.10;94.00;;;;;;4239698;27;20535;-56
2024/04/09 06:11:47;;;;;;;1.15;0.85;;;11.10;93.70;;;;;;4232120;28;20051;-56
2024/04/09 06:13:52;;;;;;;1.25;0.68;;;11.20;93.60;;;;;;4230523;28;20059;-56
2024/04/09 06:15:54;;;;;;;1.17;0.55;;;11.10;92.90;;;;;;4240567;28;20108;-63
2024/04/09 06:17:55;;;;;;;0.85;0.82;;;11.00;93.00;;;;;;4229379;28;20119;-58
2024/04/09 06:19:57;;;;;;;3.97;1.40;;;10.90;92.70;;;;;;4238016;28;20043;-57
2024/04/09 06:21:58;;;;;;;1.35;0.47;;;10.90;93.00;;;;;;4232839;28;20424;-61
2024/04/09 06:23:59;;;;;;;17.17;1.38;;;11.00;93.40;;;;;;4226890;28;20043;-56
2024/04/09 06:26:01;;;;;;;2.05;0.45;;;11.00;93.20;;;;;;4223709;28;20044;-56
2024/04/09 06:28:03;;;;;;;0.57;0.32;;;11.10;93.10;;;;;;4212409;28;20048;-56
2024/04/09 06:30:07;;;;;;;0.98;0.20;;;11.10;93.10;;;;;;4221827;28;20044;-61
2024/04/09 06:32:10;;;;;;;1.48;0.68;;;11.20;93.00;;;;;;4221280;28;20058;-56
2024/04/09 06:34:11;;;;;;;0.65;0.57;;;11.20;93.10;;;;;;4216964;28;20048;-56
2024/04/09 06:36:12;;;;;;;0.32;0.20;;;11.10;92.80;;;;;;4227237;28;20047;-56
2024/04/09 06:38:16;;;;;;;3.15;1.25;;;11.10;92.70;;;;;;4215937;28;20480;-60
2024/04/09 06:40:17;;;;;;;0.63;0.30;;;11.20;93.50;;;;;;4221366;28;20051;-58
2024/04/09 06:42:19;;;;;;;0.20;0.20;;;11.20;92.90;;;;;;4222555;28;20054;-58
2024/04/09 06:44:21;;;;;;;0.77;0.43;;;11.20;92.60;;;;;;4215676;28;20044;-56
2024/04/09 06:46:22;;;;;;;1.33;0.30;;;11.20;92.50;;;;;;4227294;28;20047;-57
2024/04/09 06:48:24;;;;;;;1.08;0.55;;;11.20;92.70;;;;;;4215122;28;20094;-58
2024/04/09 06:50:25;;;;;;;1.05;0.30;;;11.30;92.80;;;;;;4219566;28;21573;-57
2024/04/09 06:52:28;;;;;;;0.50;0.20;;;11.30;92.80;;;;;;4224012;28;20052;-56
2024/04/09 06:54:29;;;;;;;0.45;0.20;;;11.40;92.50;;;;;;4215640;28;20051;-54
2024/04/09 06:56:30;;;;;;;1.90;0.50;;;11.50;92.80;;;;;;4227345;28;20066;-57
2024/04/09 06:58:32;;;;;;;2.10;0.80;;;11.50;92.30;;;;;;4216233;28;20491;-53
2024/04/09 07:00:33;;;;;;;0.57;0.47;;;11.60;92.60;;;;;;4217058;28;20409;-60
2024/04/09 07:02:34;;;;;;;1.05;0.38;;;11.70;92.20;;;;;;4225543;28;20048;-63
2024/04/09 07:04:37;;;;;;;4.75;1.17;;;11.70;92.20;;;;;;4215498;28;20143;-54
2024/04/09 07:06:38;;;;;;;0.17;0.17;;;11.70;91.90;;;;;;4225609;28;20132;-55
2024/04/09 07:08:39;;;;;;;1.63;0.77;;;11.80;91.80;;;;;;4218143;28;20109;-58
2024/04/09 07:10:40;;;;;;;0.60;0.20;;;11.90;91.80;;;;;;4216592;28;20048;-56
2024/04/09 07:12:41;;;;;;;1.25;0.57;;;11.90;91.70;;;;;;4220383;28;20487;-56
2024/04/09 07:14:43;;;;;;;2.30;1.27;;;11.90;91.60;;;;;;4232387;28;20112;-56
2024/04/09 07:16:44;;;;;;;0.50;0.17;;;11.80;91.90;;;;;;4227904;28;20048;-56
2024/04/09 07:18:46;;;;;;;3.00;0.20;;;11.80;91.70;;;;;;4220509;28;20048;-62
2024/04/09 07:20:50;;;;;;;2.60;0.88;;;12.00;91.70;;;;;;4217190;28;20124;-57
2024/04/09 07:22:51;;;;;;;1.55;0.28;;;12.00;91.60;;;;;;4229386;28;20058;-57
2024/04/09 07:24:52;;;;;;;0.75;0.50;;;11.90;91.60;;;;;;4231565;28;20077;-57
2024/04/09 07:26:54;;;;;;;1.70;0.30;;;11.80;91.40;;;;;;4208077;28;20061;-60
2024/04/09 07:28:57;;;;;;;2.95;0.63;;;11.70;91.70;;;;;;4225001;28;20044;-60
2024/04/09 07:31:02;;;;;;;0.75;0.70;;;11.80;91.50;;;;;;4229842;28;20139;-56
2024/04/09 07:33:04;;;;;;;1.13;0.93;;;12.00;91.20;;;;;;4225548;28;20089;-57
2024/04/09 07:35:05;;;;;;;0.65;0.25;;;12.30;91.50;;;;;;4214276;28;20102;-58
2024/04/09 07:37:08;;;;;;;0.85;0.20;;;12.60;90.60;;;;;;4220077;28;20152;-60
2024/04/09 07:39:12;;;;;;;1.13;0.15;;;12.70;90.50;;;;;;4204791;28;20117;-58
2024/04/09 07:41:14;;;;;;;0.10;0.08;;;12.60;90.40;;;;;;4214989;28;20055;-56
2024/04/09 07:43:15;;;;;;;1.45;0.70;;;12.70;90.10;;;;;;4226231;28;20098;-60
2024/04/09 07:45:16;;;;;;;0.60;0.20;;;12.40;90.40;;;;;;4214034;28;20138;-55
2024/04/09 07:47:20;;;;;;;0.30;0.08;;;12.70;90.00;;;;;;4217903;28;20401;-55
2024/04/09 07:49:22;;;;;;;0.80;0.28;;;12.70;90.00;;;;;;4222280;28;20067;-57
2024/04/09 07:51:23;;;;;;;0.43;0.25;;;13.00;90.00;;;;;;4197338;28;20044;-58
2024/04/09 07:53:26;;;;;;;1.33;0.47;;;13.10;88.80;;;;;;4225427;28;20513;-54
2024/04/09 07:55:27;;;;;;;1.13;0.75;;;13.20;89.90;;;;;;4214242;28;20044;-55
2024/04/09 07:57:29;;;;;;;0.95;0.30;;;13.60;89.30;;;;;;4215838;28;20047;-55
2024/04/09 07:59:30;;;;;;;6.47;0.35;;;13.50;87.60;;;;;;4223506;28;20051;-57
2024/04/09 08:01:31;;;;;;;1.95;0.25;;;13.50;88.70;;;;;;4214126;28;20048;-55
2024/04/09 08:03:32;;;;;;;1.77;0.75;;;14.00;88.90;;;;;;4206738;28;20040;-58
2024/04/09 08:05:37;;;;;;;1.52;0.57;;;14.30;87.40;;;;;;4215829;28;20048;-56
2024/04/09 08:07:39;;;;;;;13.95;1.10;;;14.40;86.60;;;;;;4198299;28;20049;-57
2024/04/09 08:09:41;;;;;;;0.57;0.25;;;14.40;85.50;;;;;;4225066;28;20501;-57
2024/04/09 08:11:43;;;;;;;1.88;0.43;;;14.40;84.70;;;;;;4213099;28;20067;-58
2024/04/09 08:13:44;;;;;;;0.88;0.75;;;14.20;86.20;;;;;;4222350;28;20459;-57
2024/04/09 08:15:46;;;;;;;0.20;0.20;;;14.30;86.20;;;;;;4217350;28;20040;-57
2024/04/09 08:17:50;;;;;;;1.35;0.40;;;14.10;86.40;;;;;;4216290;28;20051;-57
2024/04/09 08:19:51;;;;;;;0.65;0.10;;;14.00;85.80;;;;;;4219984;28;20031;-57
2024/04/09 08:21:54;;;;;;;0.13;0.10;;;13.60;85.80;;;;;;4230615;28;20043;-57
2024/04/09 08:23:56;;;;;;;0.73;0.50;;;13.50;87.00;;;;;;4226941;28;20471;-55
2024/04/09 08:25:59;;;;;;;1.50;0.60;;;13.60;87.30;;;;;;4219389;28;20493;-56
2024/04/09 08:28:02;;;;;;;0.85;0.70;;;13.60;88.30;;;;;;4214896;28;20101;-57
2024/04/09 08:30:04;;;;;;;0.63;0.43;;;13.70;87.80;;;;;;4225423;28;20047;-55
2024/04/09 08:32:06;;;;;;;0.68;0.40;;;13.70;88.00;;;;;;4214274;28;20052;-57
2024/04/09 08:34:07;;;;;;;3.13;0.38;;;13.70;88.70;;;;;;4220168;28;20081;-56
2024/04/09 08:36:08;;;;;;;0.77;0.32;;;13.40;88.00;;;;;;4220686;28;20475;-57
2024/04/09 08:38:09;;;;;;;4.32;0.47;;;13.30;87.30;;;;;;4214695;28;20517;-59
2024/04/09 08:40:11;;;;;;;1.02;0.63;;;13.20;88.60;;;;;;4219659;28;20070;-58
2024/04/09 08:42:16;;;;;;;0.30;0.30;;;13.20;88.20;;;;;;4230718;28;20048;-56
2024/04/09 08:44:17;;;;;;;0.43;0.40;;;13.20;88.50;;;;;;4225789;28;20044;-56
2024/04/09 08:46:20;;;;;;;4.47;0.75;;;13.20;88.10;;;;;;4222843;28;20430;-57
2024/04/09 08:48:21;;;;;;;2.58;0.88;;;13.30;89.00;;;;;;4230986;28;20497;-57
2024/04/09 08:50:24;;;;;;;1.65;0.85;;;13.10;87.80;;;;;;4200783;28;20059;-57
2024/04/09 08:52:29;;;;;;;2.28;0.45;;;13.00;87.90;;;;;;4213132;28;20051;-57
2024/04/09 08:54:31;;;;;;;0.45;0.40;;;13.00;88.90;;;;;;4217043;28;20052;-57
2024/04/09 08:56:33;;;;;;;4.95;1.15;;;12.90;88.90;;;;;;4222405;28;20048;-58
2024/04/09 08:58:35;;;;;;;3.30;1.42;;;12.80;88.30;;;;;;4213759;28;20052;-57
2024/04/09 09:00:37;;;;;;;0.88;0.30;;;12.80;89.10;;;;;;4225387;28;20093;-56
2024/04/09 09:02:39;;;;;;;0.95;0.52;;;13.00;88.90;;;;;;4214659;28;20044;-59
2024/04/09 09:04:42;;;;;;;0.73;0.40;;;13.00;89.50;;;;;;4215445;28;20101;-57
2024/04/09 09:06:46;;;;;;;4.38;0.85;;;13.10;88.70;;;;;;4223596;28;20055;-57
2024/04/09 09:08:47;;;;;;;8.95;1.85;;;13.20;89.30;;;;;;4213699;28;20036;-57
2024/04/09 09:10:53;;;;;;;0.95;0.80;;;13.10;88.90;;;;;;4223634;28;20051;-57
2024/04/09 09:13:02;;;;;;;0.60;0.20;;;13.10;88.80;;;;;;4215166;28;20048;-55
2024/04/09 09:15:05;;;;;;;2.22;0.57;;;13.10;87.90;;;;;;4215743;28;20047;-59
2024/04/09 09:17:09;;;;;;;0.17;0.17;;;13.20;88.00;;;;;;4223279;28;20471;-56
2024/04/09 09:19:10;;;;;;;0.20;0.20;;;13.10;88.50;;;;;;4213582;28;20052;-55
2024/04/09 09:21:13;;;;;;;1.33;0.75;;;13.10;88.30;;;;;;4224066;28;20052;-55
2024/04/09 09:23:17;;;;;;;0.10;0.10;;;13.20;87.70;;;;;;4239567;27;20047;-57
2024/04/09 09:25:22;;;;;;;1.13;0.20;;;13.40;87.50;;;;;;4242580;27;20492;-57
2024/04/09 09:27:24;;;;;;;0.73;0.57;;;13.40;87.20;;;;;;4240705;27;20449;-57
2024/04/09 09:29:26;;;;;;;0.30;0.22;;;13.60;87.90;;;;;;4230553;28;20050;-60
2024/04/09 09:31:30;;;;;;;2.92;1.15;;;13.50;87.40;;;;;;4240244;27;20172;-54
2024/04/09 09:33:38;;;;;;;0.30;0.30;;;13.60;88.10;;;;;;4232223;27;20096;-57
2024/04/09 09:35:46;;;;;;;0.73;0.40;;;13.70;87.20;;;;;;4231254;27;20051;-57
2024/04/09 09:37:48;;;;;;;1.50;0.70;;;13.70;87.20;;;;;;4236698;27;20067;-59
2024/04/09 09:39:51;;;;;;;0.85;0.30;;;13.80;87.60;;;;;;4246346;27;20121;-58
2024/04/09 09:41:54;;;;;;;2.17;1.10;;;13.90;87.20;;;;;;4236465;27;20520;-62
2024/04/09 09:43:55;;;;;;;0.65;0.30;;;13.90;86.40;;;;;;4245551;27;20451;-56
2024/04/09 09:45:57;;;;;;;4.70;1.38;;;13.80;85.00;;;;;;4228669;28;20059;-57
2024/04/09 09:48:00;;;;;;;7.72;0.75;;;13.70;86.70;;;;;;4235579;27;20035;-61
2024/04/09 09:50:08;;;;;;;0.30;0.20;;;13.60;85.70;;;;;;4246918;27;20043;-65
2024/04/09 09:52:09;;;;;;;1.17;0.38;;;13.60;86.00;;;;;;4245845;27;20096;-57
2024/04/09 09:54:10;;;;;;;0.32;0.20;;;13.60;87.20;;;;;;4232227;27;20043;-58
2024/04/09 09:56:14;;;;;;;1.17;0.73;;;13.70;87.40;;;;;;4231748;27;20043;-60
2024/04/09 09:58:20;;;;;;;0.30;0.20;;;13.70;86.30;;;;;;4234805;27;20481;-56
2024/04/09 10:00:22;;;;;;;1.33;0.75;;;13.70;87.40;;;;;;4247001;27;20058;-57
2024/04/09 10:02:27;;;;;;;1.00;0.40;;;13.80;86.60;;;;;;4237599;27;20446;-58
2024/04/09 10:04:30;;;;;;;1.65;0.65;;;13.80;85.60;;;;;;4244012;27;20050;-57
2024/04/09 10:06:31;;;;;;;3.22;1.00;;;13.60;85.20;;;;;;4243460;27;20450;-56
2024/04/09 10:08:32;;;;;;;0.40;0.17;;;13.60;85.80;;;;;;4245855;27;20043;-56
2024/04/09 10:10:34;;;;;;;0.63;0.10;;;13.70;85.70;;;;;;4246979;27;20047;-57
2024/04/09 10:12:35;;;;;;;0.35;0.10;;;13.70;85.10;;;;;;4238485;27;20044;-57
2024/04/09 10:14:40;;;;;;;0.40;0.35;;;13.70;85.50;;;;;;4242079;28;20046;-57
2024/04/09 10:16:41;;;;;;;1.52;0.38;;;13.90;85.10;;;;;;4245388;28;20112;-57
2024/04/09 10:18:45;;;;;;;5.97;0.65;;;14.00;85.60;;;;;;4235351;28;20080;-58
2024/04/09 10:20:53;;;;;;;0.80;0.38;;;14.00;86.20;;;;;;4246457;28;20047;-57
2024/04/09 10:22:57;;;;;;;3.83;0.73;;;13.90;84.70;;;;;;4244364;28;20051;-57
2024/04/09 10:25:01;;;;;;;0.75;0.50;;;13.90;84.60;;;;;;4234135;28;20048;-56
2024/04/09 10:27:04;;;;;;;2.22;0.20;;;13.90;84.80;;;;;;4230813;28;20047;-57
2024/04/09 10:29:06;;;;;;;1.15;0.30;;;14.10;84.90;;;;;;4241002;28;20419;-56
2024/04/09 10:31:13;;;;;;;0.30;0.30;;;14.00;84.30;;;;;;4229570;28;20089;-56
2024/04/09 10:33:14;;;;;;;0.73;0.28;;;14.10;85.60;;;;;;4237031;28;20089;-60
2024/04/09 10:35:16;;;;;;;18.70;1.38;;;14.20;84.80;;;;;;4234299;28;20351;-58